Time;durP1;ratioP1;P1;durP2;ratioP2;P2;SDS_P1;SDS_P2;PMS_P1;PMS_P2;Temp;Humidity;BMP_temperature;BMP_pressure;BME280_temperature;BME280_humidity;BME280_pressure;Samples;Min_cycle;Max_cycle;Signal;HPM_P1;HPM_P2
2024/03/01 00:00:41;;;;;;;9.98;2.70;;;3.50;99.90;;;;;;5093552;28;20023;-87
2024/03/01 00:03:07;;;;;;;9.10;2.40;;;3.50;99.90;;;;;;5093171;28;20032;-87
2024/03/01 00:05:33;;;;;;;11.88;2.88;;;3.40;99.90;;;;;;5094354;28;20024;-88
2024/03/01 00:07:59;;;;;;;12.45;2.38;;;3.40;99.90;;;;;;5097660;28;20012;-87
2024/03/01 00:10:25;;;;;;;11.43;2.38;;;3.40;99.90;;;;;;5096188;28;20046;-87
2024/03/01 00:12:51;;;;;;;8.38;2.00;;;3.40;99.90;;;;;;5093909;28;20031;-87
2024/03/01 00:15:17;;;;;;;7.63;2.35;;;3.40;99.90;;;;;;5093985;28;20032;-88
2024/03/01 00:17:42;;;;;;;14.80;2.60;;;3.30;99.90;;;;;;5093834;28;20047;-88
2024/03/01 00:20:12;;;;;;;10.05;2.17;;;3.30;99.90;;;;;;5092766;28;20051;-88
2024/03/01 00:22:38;;;;;;;4.32;1.73;;;3.30;99.90;;;;;;5092771;28;20115;-88
2024/03/01 00:25:07;;;;;;;12.02;2.53;;;3.30;99.90;;;;;;5093717;28;20040;-88
2024/03/01 00:27:33;;;;;;;9.18;2.13;;;3.20;99.90;;;;;;5092749;28;20062;-87
2024/03/01 00:29:58;;;;;;;9.10;2.45;;;3.20;99.90;;;;;;5091804;28;20039;-88
2024/03/01 00:32:24;;;;;;;9.68;1.83;;;3.20;99.90;;;;;;5093188;28;20411;-88
2024/03/01 00:34:49;;;;;;;6.70;2.03;;;3.20;99.90;;;;;;5092477;28;20477;-88
2024/03/01 00:37:15;;;;;;;5.15;1.95;;;3.20;99.90;;;;;;5092589;28;20516;-88
2024/03/01 00:39:41;;;;;;;8.98;1.92;;;3.20;99.90;;;;;;5093087;28;20039;-88
2024/03/01 00:42:07;;;;;;;4.25;2.00;;;3.10;99.90;;;;;;5093959;28;20436;-87
2024/03/01 00:44:32;;;;;;;15.10;1.77;;;3.10;99.90;;;;;;5092103;28;20450;-88
2024/03/01 00:46:58;;;;;;;10.65;1.90;;;3.20;99.90;;;;;;5091677;28;20392;-88
2024/03/01 00:49:24;;;;;;;7.75;2.08;;;3.20;99.90;;;;;;5092311;28;20381;-88
2024/03/01 00:51:50;;;;;;;6.45;2.00;;;3.30;99.90;;;;;;5092069;28;20024;-87
2024/03/01 00:54:16;;;;;;;8.13;1.90;;;3.30;99.90;;;;;;5088893;28;20389;-88
2024/03/01 00:56:42;;;;;;;11.30;2.10;;;3.30;99.90;;;;;;5091951;28;20044;-87
2024/03/01 00:59:08;;;;;;;8.82;1.90;;;3.30;99.90;;;;;;5091887;28;20107;-88
2024/03/01 01:01:33;;;;;;;5.72;1.75;;;3.30;99.90;;;;;;5091668;28;20103;-87
2024/03/01 01:03:59;;;;;;;9.65;2.13;;;3.30;99.90;;;;;;5092073;28;20085;-88
2024/03/01 01:06:25;;;;;;;8.30;1.70;;;3.30;99.90;;;;;;5091969;28;20023;-88
2024/03/01 01:08:50;;;;;;;10.18;2.10;;;3.30;99.90;;;;;;5091708;28;20066;-88
2024/03/01 01:11:16;;;;;;;6.75;2.17;;;3.30;99.90;;;;;;5091719;28;20023;-88
2024/03/01 01:13:42;;;;;;;8.65;2.00;;;3.30;99.90;;;;;;5091661;28;20077;-88
2024/03/01 01:16:08;;;;;;;9.05;2.90;;;3.30;99.90;;;;;;5091741;28;20042;-88
2024/03/01 01:18:33;;;;;;;11.70;2.08;;;3.20;99.90;;;;;;5091769;28;20020;-87
2024/03/01 01:20:59;;;;;;;9.48;2.08;;;3.10;99.90;;;;;;5091531;28;20457;-86
2024/03/01 01:23:25;;;;;;;9.95;2.88;;;3.10;99.90;;;;;;5091254;28;20020;-87
2024/03/01 01:25:50;;;;;;;7.97;1.50;;;3.00;99.90;;;;;;5091498;28;20024;-87
2024/03/01 01:28:16;;;;;;;13.90;2.88;;;3.00;99.90;;;;;;5091540;28;20409;-87
2024/03/01 01:30:45;;;;;;;6.85;1.70;;;2.90;99.90;;;;;;5091371;28;20020;-87
2024/03/01 01:33:11;;;;;;;9.07;1.88;;;2.80;99.90;;;;;;5090854;28;20117;-87
2024/03/01 01:35:38;;;;;;;9.25;2.15;;;2.80;99.90;;;;;;5091023;28;20047;-87
2024/03/01 01:38:03;;;;;;;12.30;1.92;;;2.70;99.90;;;;;;5092397;28;20114;-86
2024/03/01 01:40:30;;;;;;;9.10;1.83;;;2.70;99.90;;;;;;5091340;28;20103;-87
2024/03/01 01:43:03;;;;;;;7.75;2.15;;;2.60;99.90;;;;;;5088373;28;20024;-87
2024/03/01 01:45:29;;;;;;;16.00;2.78;;;2.60;99.90;;;;;;5091251;28;20027;-86
2024/03/01 01:47:55;;;;;;;14.35;2.17;;;2.50;99.90;;;;;;5091178;28;20016;-86
2024/03/01 01:50:20;;;;;;;13.25;2.88;;;2.50;99.90;;;;;;5092248;28;20081;-86
2024/03/01 01:52:46;;;;;;;11.15;2.50;;;2.40;99.90;;;;;;5090949;28;20025;-87
2024/03/01 01:55:12;;;;;;;12.15;2.30;;;2.40;99.90;;;;;;5090813;28;20030;-87
2024/03/01 01:57:45;;;;;;;7.50;1.90;;;2.40;99.90;;;;;;5091301;28;20060;-87
2024/03/01 02:00:13;;;;;;;5.40;1.90;;;2.40;99.90;;;;;;5096315;28;20469;-86
2024/03/01 02:02:40;;;;;;;12.75;2.42;;;2.40;99.90;;;;;;5092403;28;20110;-86
2024/03/01 02:05:06;;;;;;;7.75;2.55;;;2.40;99.90;;;;;;5096240;28;20016;-86
2024/03/01 02:07:32;;;;;;;9.00;1.80;;;2.40;99.90;;;;;;5094707;28;20032;-87
2024/03/01 02:09:59;;;;;;;11.45;2.42;;;2.30;99.90;;;;;;5094868;28;20061;-86
2024/03/01 02:12:24;;;;;;;6.90;1.70;;;2.30;99.90;;;;;;5096142;28;20020;-86
2024/03/01 02:14:50;;;;;;;5.80;1.90;;;2.30;99.90;;;;;;5096218;28;20020;-87
2024/03/01 02:17:16;;;;;;;8.10;2.00;;;2.20;99.90;;;;;;5094859;28;20051;-87
2024/03/01 02:19:41;;;;;;;12.57;2.33;;;2.20;99.90;;;;;;5096394;28;20393;-87
2024/03/01 02:22:14;;;;;;;8.00;2.47;;;2.20;99.90;;;;;;5094943;28;20066;-87
2024/03/01 02:24:40;;;;;;;7.10;1.98;;;2.10;99.90;;;;;;5092675;28;20048;-87
2024/03/01 02:27:06;;;;;;;13.27;3.00;;;2.10;99.90;;;;;;5094893;28;20059;-87
2024/03/01 02:29:31;;;;;;;7.65;2.70;;;2.10;99.90;;;;;;5095214;28;20024;-87
2024/03/01 02:31:58;;;;;;;9.70;3.08;;;2.10;99.90;;;;;;5094521;28;20130;-87
2024/03/01 02:34:24;;;;;;;15.23;2.88;;;2.10;99.90;;;;;;5094649;28;20130;-87
2024/03/01 02:36:50;;;;;;;9.23;3.05;;;2.00;99.90;;;;;;5094113;28;20400;-87
2024/03/01 02:39:18;;;;;;;11.05;3.17;;;2.00;99.90;;;;;;5094246;28;20107;-87
2024/03/01 02:41:45;;;;;;;11.02;2.58;;;2.00;99.90;;;;;;5094528;28;20398;-87
2024/03/01 02:44:12;;;;;;;7.43;2.65;;;1.90;99.90;;;;;;5094617;28;20056;-87
2024/03/01 02:46:38;;;;;;;11.32;3.20;;;1.90;99.90;;;;;;5091632;28;20109;-86
2024/03/01 02:49:03;;;;;;;13.80;3.83;;;1.90;99.90;;;;;;5094253;28;20485;-86
2024/03/01 02:51:29;;;;;;;6.60;2.50;;;1.80;99.90;;;;;;5094297;28;20531;-86
2024/03/01 02:53:55;;;;;;;3.40;2.28;;;1.80;99.90;;;;;;5094103;28;20024;-86
2024/03/01 02:56:21;;;;;;;13.15;4.32;;;1.80;99.90;;;;;;5094299;28;20031;-85
2024/03/01 02:58:47;;;;;;;11.07;2.53;;;1.80;99.90;;;;;;5095514;28;20020;-86
2024/03/01 03:01:14;;;;;;;9.05;2.30;;;1.80;99.90;;;;;;5094034;28;20085;-87
2024/03/01 03:03:40;;;;;;;9.18;3.42;;;1.70;99.90;;;;;;5093985;28;20060;-87
2024/03/01 03:06:06;;;;;;;17.50;2.92;;;1.70;99.90;;;;;;5093921;28;20425;-87
2024/03/01 03:08:31;;;;;;;8.13;2.50;;;1.70;99.90;;;;;;5094049;28;20058;-87
2024/03/01 03:10:57;;;;;;;8.90;3.00;;;1.60;99.90;;;;;;5095009;28;20019;-86
2024/03/01 03:13:23;;;;;;;12.90;2.88;;;1.60;99.90;;;;;;5097731;28;20023;-87
2024/03/01 03:15:49;;;;;;;9.77;2.83;;;1.60;99.90;;;;;;5096844;28;20097;-87
2024/03/01 03:18:15;;;;;;;11.70;3.05;;;1.60;99.90;;;;;;5095332;28;20020;-87
2024/03/01 03:20:40;;;;;;;11.27;3.35;;;1.60;99.90;;;;;;5094028;28;20020;-87
2024/03/01 03:23:06;;;;;;;15.02;3.50;;;1.60;99.90;;;;;;5094038;28;20569;-87
2024/03/01 03:25:32;;;;;;;8.85;3.60;;;1.60;99.90;;;;;;5093996;28;20052;-86
2024/03/01 03:27:58;;;;;;;15.30;4.95;;;1.60;99.90;;;;;;5094816;28;20022;-87
2024/03/01 03:30:24;;;;;;;15.98;4.57;;;1.60;99.90;;;;;;5093590;28;20081;-87
2024/03/01 03:32:49;;;;;;;13.85;3.17;;;1.60;99.90;;;;;;5094696;28;20575;-87
2024/03/01 03:35:15;;;;;;;10.00;3.97;;;1.70;99.90;;;;;;5093383;28;20022;-87
2024/03/01 03:37:40;;;;;;;13.27;4.65;;;1.70;99.90;;;;;;5093190;28;20078;-87
2024/03/01 03:40:15;;;;;;;21.30;5.32;;;1.80;99.90;;;;;;5094271;28;20046;-86
2024/03/01 03:42:44;;;;;;;14.65;4.85;;;1.90;99.90;;;;;;5090914;28;20080;-87
2024/03/01 03:45:10;;;;;;;12.52;4.65;;;1.90;99.90;;;;;;5094808;28;20044;-87
2024/03/01 03:47:37;;;;;;;14.40;4.40;;;1.90;99.90;;;;;;5093058;28;20019;-86
2024/03/01 03:50:07;;;;;;;23.65;8.07;;;1.90;99.90;;;;;;5092983;28;20045;-87
2024/03/01 03:52:34;;;;;;;19.08;5.20;;;1.90;99.90;;;;;;5092947;28;20028;-87
2024/03/01 03:55:00;;;;;;;9.85;4.50;;;1.90;99.90;;;;;;5094143;28;20515;-87
2024/03/01 03:57:26;;;;;;;18.38;5.53;;;1.90;99.90;;;;;;5094339;28;20032;-88
2024/03/01 03:59:52;;;;;;;17.73;5.57;;;2.00;99.90;;;;;;5093000;28;20350;-87
2024/03/01 04:02:17;;;;;;;18.02;5.90;;;1.90;99.90;;;;;;5091370;28;20034;-87
2024/03/01 04:04:43;;;;;;;13.55;5.47;;;2.00;99.90;;;;;;5092816;28;20590;-87
2024/03/01 04:07:09;;;;;;;25.40;7.45;;;2.00;99.90;;;;;;5092972;28;20032;-86
2024/03/01 04:09:36;;;;;;;15.00;7.10;;;2.00;99.90;;;;;;5093118;28;20115;-87
2024/03/01 04:12:05;;;;;;;24.17;8.95;;;2.00;99.90;;;;;;5093254;28;20397;-87
2024/03/01 04:14:34;;;;;;;20.42;7.05;;;2.00;99.90;;;;;;5094148;28;20020;-87
2024/03/01 04:17:00;;;;;;;20.40;6.78;;;2.10;99.90;;;;;;5090089;28;20036;-88
2024/03/01 04:19:26;;;;;;;20.42;8.07;;;2.10;99.90;;;;;;5092748;28;20387;-88
2024/03/01 04:21:52;;;;;;;17.98;8.75;;;2.10;99.90;;;;;;5091808;28;20032;-88
2024/03/01 04:24:18;;;;;;;22.20;8.63;;;2.10;99.90;;;;;;5087153;28;20024;-87
2024/03/01 04:26:44;;;;;;;23.23;9.77;;;2.10;99.90;;;;;;5092687;28;20389;-88
2024/03/01 04:29:10;;;;;;;30.80;11.25;;;2.20;99.90;;;;;;5092618;28;20028;-88
2024/03/01 04:31:36;;;;;;;19.45;8.55;;;2.20;99.90;;;;;;5092593;28;20016;-87
2024/03/01 04:34:06;;;;;;;29.83;11.13;;;2.20;99.90;;;;;;5093986;28;20043;-87
2024/03/01 04:36:32;;;;;;;34.85;11.73;;;2.30;99.90;;;;;;5092754;28;20052;-87
2024/03/01 04:38:58;;;;;;;25.15;10.93;;;2.30;99.90;;;;;;5089906;28;20047;-87
2024/03/01 04:41:24;;;;;;;24.80;9.85;;;2.30;99.90;;;;;;5092604;28;20374;-86
2024/03/01 04:43:49;;;;;;;23.35;10.05;;;2.30;99.90;;;;;;5092288;28;20134;-87
2024/03/01 04:46:15;;;;;;;21.60;9.10;;;2.30;99.90;;;;;;5092060;28;20453;-87
2024/03/01 04:48:41;;;;;;;21.83;8.43;;;2.30;99.90;;;;;;5093341;28;20027;-87
2024/03/01 04:51:12;;;;;;;18.73;7.60;;;2.30;99.90;;;;;;5092378;28;20052;-87
2024/03/01 04:53:39;;;;;;;20.08;6.75;;;2.40;99.90;;;;;;5090625;28;20050;-87
2024/03/01 04:56:06;;;;;;;23.02;6.30;;;2.40;99.90;;;;;;5091902;28;20109;-87
2024/03/01 04:58:32;;;;;;;17.35;6.28;;;2.40;99.90;;;;;;5088398;28;20028;-87
2024/03/01 05:01:00;;;;;;;15.52;6.07;;;2.40;99.90;;;;;;5088036;28;20016;-87
2024/03/01 05:03:28;;;;;;;17.48;5.97;;;2.40;99.90;;;;;;5092097;28;20480;-87
2024/03/01 05:05:55;;;;;;;14.38;6.28;;;2.40;99.90;;;;;;5092110;28;20023;-87
2024/03/01 05:08:22;;;;;;;13.77;5.40;;;2.50;99.90;;;;;;5093150;28;20503;-87
2024/03/01 05:10:49;;;;;;;18.58;4.53;;;2.40;99.90;;;;;;5091230;28;20228;-87
2024/03/01 05:13:18;;;;;;;20.63;5.70;;;2.50;99.90;;;;;;5091761;28;20024;-87
2024/03/01 05:15:45;;;;;;;14.45;5.03;;;2.50;99.90;;;;;;5096626;28;20028;-87
2024/03/01 05:18:12;;;;;;;16.13;5.00;;;2.50;99.90;;;;;;5091344;28;20489;-87
2024/03/01 05:20:38;;;;;;;13.02;4.88;;;2.50;99.90;;;;;;5092688;28;20035;-87
2024/03/01 05:23:04;;;;;;;16.17;4.60;;;2.50;99.90;;;;;;5091569;28;20191;-87
2024/03/01 05:25:29;;;;;;;14.23;5.15;;;2.50;99.90;;;;;;5091432;28;20012;-87
2024/03/01 05:27:55;;;;;;;23.15;4.93;;;2.60;99.90;;;;;;5091388;28;20028;-87
2024/03/01 05:30:23;;;;;;;16.30;4.68;;;2.50;99.90;;;;;;5091073;28;20492;-87
2024/03/01 05:32:50;;;;;;;18.63;4.80;;;2.50;99.90;;;;;;5091229;28;20031;-87
2024/03/01 05:35:21;;;;;;;25.42;5.13;;;2.50;99.90;;;;;;5091099;28;20385;-87
2024/03/01 05:37:47;;;;;;;11.55;4.35;;;2.50;99.90;;;;;;5091152;28;20522;-87
2024/03/01 05:40:16;;;;;;;11.68;3.85;;;2.50;99.90;;;;;;5091430;28;20034;-87
2024/03/01 05:42:46;;;;;;;16.70;3.97;;;2.40;99.90;;;;;;5089049;28;20020;-87
2024/03/01 05:45:12;;;;;;;14.32;4.10;;;2.40;99.90;;;;;;5091026;28;20020;-87
2024/03/01 05:47:39;;;;;;;13.77;4.18;;;2.40;99.90;;;;;;5091239;28;20051;-87
2024/03/01 05:50:06;;;;;;;12.05;4.30;;;2.40;99.90;;;;;;5091176;28;20024;-86
2024/03/01 05:52:36;;;;;;;14.15;4.03;;;2.30;99.90;;;;;;5091088;28;20024;-86
2024/03/01 05:55:06;;;;;;;12.25;3.83;;;2.40;99.90;;;;;;5100158;28;20107;-87
2024/03/01 05:57:34;;;;;;;17.02;4.45;;;2.40;99.90;;;;;;5091475;28;20111;-87
2024/03/01 06:00:00;;;;;;;15.43;4.82;;;2.30;99.90;;;;;;5091348;28;20020;-87
2024/03/01 06:02:26;;;;;;;20.65;4.35;;;2.30;99.90;;;;;;5091612;28;20487;-86
2024/03/01 06:04:51;;;;;;;11.20;4.45;;;2.30;99.90;;;;;;5091562;28;20028;-86
2024/03/01 06:07:18;;;;;;;18.48;5.43;;;2.30;99.90;;;;;;5092702;28;20034;-87
2024/03/01 06:09:44;;;;;;;17.85;4.80;;;2.20;99.90;;;;;;5091174;28;20119;-86
2024/03/01 06:12:09;;;;;;;21.10;5.90;;;2.20;99.90;;;;;;5091742;28;20051;-86
2024/03/01 06:14:35;;;;;;;19.63;5.38;;;2.20;99.90;;;;;;5091838;28;20492;-86
2024/03/01 06:17:02;;;;;;;17.30;5.47;;;2.20;99.90;;;;;;5092743;28;20056;-86
2024/03/01 06:19:27;;;;;;;19.10;7.07;;;2.20;99.90;;;;;;5097367;28;20016;-86
2024/03/01 06:21:55;;;;;;;24.48;6.63;;;2.20;99.90;;;;;;5092543;28;20035;-86
2024/03/01 06:24:22;;;;;;;15.88;7.10;;;2.20;99.90;;;;;;5088860;28;20047;-86
2024/03/01 06:26:49;;;;;;;18.13;5.72;;;2.20;99.90;;;;;;5090646;28;20016;-88
2024/03/01 06:29:16;;;;;;;19.42;7.22;;;2.20;99.90;;;;;;5092045;28;20031;-86
2024/03/01 06:31:42;;;;;;;19.65;6.43;;;2.20;99.90;;;;;;5090766;28;20058;-87
2024/03/01 06:34:08;;;;;;;22.10;6.55;;;2.30;99.90;;;;;;5091185;28;20058;-87
2024/03/01 06:36:34;;;;;;;18.73;6.85;;;2.30;99.90;;;;;;5091128;28;20089;-87
2024/03/01 06:38:59;;;;;;;27.80;6.00;;;2.20;99.90;;;;;;5091141;28;20359;-86
2024/03/01 06:41:25;;;;;;;14.90;5.43;;;2.20;99.90;;;;;;5090733;28;20312;-87
2024/03/01 06:43:51;;;;;;;17.63;6.30;;;2.20;99.90;;;;;;5091682;28;20480;-87
2024/03/01 06:46:16;;;;;;;16.10;5.38;;;2.20;99.90;;;;;;5098230;28;20023;-87
2024/03/01 06:48:42;;;;;;;10.07;4.60;;;2.20;99.90;;;;;;5128374;27;20541;-87
2024/03/01 06:51:08;;;;;;;14.23;3.90;;;2.20;99.90;;;;;;5129403;27;20029;-86
2024/03/01 06:53:34;;;;;;;15.07;5.20;;;2.20;99.90;;;;;;5102292;28;20018;-87
2024/03/01 06:56:02;;;;;;;13.70;4.93;;;2.20;99.90;;;;;;5105955;28;20465;-87
2024/03/01 06:58:28;;;;;;;10.00;4.28;;;2.30;99.90;;;;;;5104849;28;20020;-87
2024/03/01 07:00:54;;;;;;;14.40;4.75;;;2.20;99.90;;;;;;5102491;28;20080;-87
2024/03/01 07:03:20;;;;;;;12.23;3.10;;;2.30;99.90;;;;;;5104950;28;20016;-87
2024/03/01 07:05:46;;;;;;;15.73;2.95;;;2.30;99.90;;;;;;5116514;27;20203;-87
2024/03/01 07:08:11;;;;;;;11.63;2.90;;;2.40;99.90;;;;;;5105696;27;20478;-87
2024/03/01 07:10:38;;;;;;;14.35;3.28;;;2.50;99.90;;;;;;5127682;27;20016;-88
2024/03/01 07:13:03;;;;;;;7.55;1.60;;;2.50;99.90;;;;;;5100283;28;20023;-87
2024/03/01 07:15:29;;;;;;;11.02;2.30;;;2.50;99.90;;;;;;5103488;28;20012;-87
2024/03/01 07:17:58;;;;;;;11.73;2.92;;;2.60;99.90;;;;;;5128502;27;20035;-87
2024/03/01 07:20:24;;;;;;;9.10;2.08;;;2.60;99.90;;;;;;5102001;28;20019;-87
2024/03/01 07:22:50;;;;;;;5.93;1.52;;;2.60;99.90;;;;;;5103216;28;20389;-86
2024/03/01 07:25:17;;;;;;;9.13;2.08;;;2.60;99.90;;;;;;5130378;27;20500;-87
2024/03/01 07:27:43;;;;;;;7.68;2.28;;;2.70;99.90;;;;;;5105748;28;20500;-87
2024/03/01 07:30:09;;;;;;;7.80;2.00;;;2.70;99.90;;;;;;5103183;28;20093;-87
2024/03/01 07:32:35;;;;;;;13.10;2.72;;;2.70;99.90;;;;;;5104443;28;20173;-86
2024/03/01 07:35:05;;;;;;;7.60;2.00;;;2.70;99.90;;;;;;5104836;28;20051;-87
2024/03/01 07:37:31;;;;;;;7.30;2.40;;;2.70;99.90;;;;;;5105806;28;20043;-86
2024/03/01 07:39:57;;;;;;;9.45;1.77;;;2.70;99.90;;;;;;5130056;27;20630;-87
2024/03/01 07:42:24;;;;;;;7.85;1.80;;;2.70;99.90;;;;;;5117013;27;20020;-86
2024/03/01 07:44:50;;;;;;;9.27;2.00;;;2.70;99.90;;;;;;5102910;28;20107;-87
2024/03/01 07:47:16;;;;;;;8.10;2.10;;;2.70;99.90;;;;;;5096193;28;20024;-86
2024/03/01 07:49:42;;;;;;;8.55;2.08;;;2.70;99.90;;;;;;5094869;28;20024;-86
2024/03/01 07:52:07;;;;;;;6.72;2.95;;;2.70;99.90;;;;;;5099611;28;20165;-86
2024/03/01 07:54:33;;;;;;;9.98;2.08;;;2.70;99.90;;;;;;5130064;27;20020;-87
2024/03/01 07:56:59;;;;;;;12.73;2.30;;;2.70;99.90;;;;;;5129078;27;20036;-86
2024/03/01 07:59:25;;;;;;;8.05;2.20;;;2.70;99.90;;;;;;5129086;27;20019;-86
2024/03/01 08:01:51;;;;;;;7.13;2.28;;;2.70;99.90;;;;;;5097065;28;20039;-87
2024/03/01 08:04:17;;;;;;;11.77;2.80;;;2.60;99.90;;;;;;5103519;28;20034;-86
2024/03/01 08:06:42;;;;;;;7.45;2.20;;;2.70;99.90;;;;;;5102277;28;20031;-86
2024/03/01 08:09:16;;;;;;;11.23;2.38;;;2.60;99.90;;;;;;5102828;28;20023;-86
2024/03/01 08:11:44;;;;;;;6.90;2.25;;;2.70;99.90;;;;;;5098217;28;20024;-86
2024/03/01 08:14:33;;;;;;;8.20;1.85;;;2.70;99.90;;;;;;5103054;28;20529;-87
2024/03/01 08:16:59;;;;;;;6.78;2.58;;;2.70;99.90;;;;;;5103885;28;20495;-88
2024/03/01 08:19:35;;;;;;;12.55;2.45;;;2.70;99.90;;;;;;5103726;28;20023;-86
2024/03/01 08:22:09;;;;;;;7.57;2.35;;;2.70;99.90;;;;;;5098817;28;20024;-86
2024/03/01 08:24:36;;;;;;;9.05;2.25;;;2.70;99.90;;;;;;5102634;27;20106;-87
2024/03/01 08:27:04;;;;;;;8.45;2.42;;;2.80;99.90;;;;;;5098475;28;20027;-87
2024/03/01 08:29:32;;;;;;;6.40;2.00;;;2.80;99.90;;;;;;5093021;28;20473;-86
2024/03/01 08:31:58;;;;;;;7.97;2.58;;;2.80;99.90;;;;;;5093187;28;20034;-86
2024/03/01 08:34:31;;;;;;;12.02;2.50;;;2.80;99.90;;;;;;5095626;28;20486;-87
2024/03/01 08:36:57;;;;;;;13.88;3.10;;;2.80;99.90;;;;;;5092533;28;20052;-87
2024/03/01 08:39:24;;;;;;;9.68;3.72;;;2.80;99.90;;;;;;5092903;28;20074;-86
2024/03/01 08:41:52;;;;;;;24.75;5.10;;;2.80;99.90;;;;;;5093124;28;20020;-89
2024/03/01 08:44:33;;;;;;;16.42;5.00;;;2.80;99.90;;;;;;5099997;28;20021;-90
2024/03/01 08:46:58;;;;;;;;;;;2.80;99.90;;;;;;5091410;28;20050;-91
2024/03/01 08:49:53;;;;;;;11.18;4.78;;;2.80;99.90;;;;;;5092367;28;19904;-91
2024/03/01 08:52:35;;;;;;;7.55;4.05;;;2.80;99.90;;;;;;5053571;28;20029;-91
2024/03/01 08:55:40;;;;;;;7.40;4.25;;;2.70;99.90;;;;;;5063470;28;20496;-91
2024/03/01 08:58:14;;;;;;;7.60;4.45;;;2.70;99.90;;;;;;5046703;28;20160;-91
2024/03/01 09:00:46;;;;;;;6.38;3.88;;;2.60;99.90;;;;;;5047812;28;20017;-90
2024/03/01 09:03:23;;;;;;;6.10;3.20;;;2.60;99.90;;;;;;5045557;28;20082;-90
2024/03/01 09:05:51;;;;;;;4.90;2.65;;;2.60;99.90;;;;;;5044575;28;20539;-90
2024/03/01 09:08:23;;;;;;;4.28;2.00;;;2.50;99.90;;;;;;5066541;28;20024;-90
2024/03/01 09:10:53;;;;;;;5.03;2.45;;;2.50;99.90;;;;;;5073107;28;20090;-90
2024/03/01 09:13:19;;;;;;;2.78;1.90;;;2.50;99.90;;;;;;5038029;28;20244;-91
2024/03/01 09:15:46;;;;;;;2.45;1.77;;;2.50;99.90;;;;;;5046052;28;20506;-91
2024/03/01 09:18:30;;;;;;;2.20;1.70;;;2.50;99.90;;;;;;5042909;28;20033;-91
2024/03/01 09:20:55;;;;;;;3.72;1.33;;;2.40;99.90;;;;;;5070003;28;20033;-92
2024/03/01 09:23:22;;;;;;;1.73;1.05;;;2.40;99.90;;;;;;5042529;28;20037;-91
2024/03/01 09:25:47;;;;;;;2.47;1.40;;;2.40;99.90;;;;;;5060101;28;20120;-90
2024/03/01 09:28:17;;;;;;;2.00;1.58;;;2.40;99.90;;;;;;5071708;28;20474;-91
2024/03/01 09:30:50;;;;;;;3.20;1.42;;;2.40;99.90;;;;;;5091626;28;20446;-91
2024/03/01 09:33:17;;;;;;;3.90;1.20;;;2.40;99.90;;;;;;5091341;28;20111;-90
2024/03/01 09:35:44;;;;;;;1.55;1.00;;;2.30;99.90;;;;;;5091970;28;20115;-90
2024/03/01 09:38:14;;;;;;;0.93;0.93;;;2.20;99.90;;;;;;5088775;28;20044;-92
2024/03/01 09:40:53;;;;;;;1.25;0.80;;;2.20;99.90;;;;;;5092132;28;20103;-91
2024/03/01 09:43:38;;;;;;;1.42;0.52;;;2.20;99.90;;;;;;5091709;28;20050;-91
2024/03/01 09:46:20;;;;;;;1.42;0.70;;;2.20;99.90;;;;;;5086886;28;20031;-90
2024/03/01 09:49:24;;;;;;;0.85;0.70;;;2.20;99.90;;;;;;5090194;28;20035;-90
2024/03/01 09:52:16;;;;;;;1.90;1.40;;;2.20;99.90;;;;;;5090435;28;20027;-90
2024/03/01 09:55:07;;;;;;;1.33;0.80;;;2.20;99.90;;;;;;5089677;28;20020;-90
2024/03/01 09:58:02;;;;;;;0.77;0.70;;;2.20;99.90;;;;;;5088604;28;20039;-90
2024/03/01 10:00:33;;;;;;;1.55;0.65;;;2.20;99.90;;;;;;5083986;28;20032;-90
2024/03/01 10:03:11;;;;;;;1.83;0.55;;;2.20;99.90;;;;;;5091819;28;20027;-91
2024/03/01 10:05:40;;;;;;;0.60;0.60;;;2.20;99.90;;;;;;5090003;28;20020;-90
2024/03/01 10:08:24;;;;;;;2.00;0.70;;;2.20;99.90;;;;;;5091427;28;20024;-90
2024/03/01 10:11:05;;;;;;;0.80;0.57;;;2.10;99.90;;;;;;5089377;28;20031;-89
2024/03/01 10:13:55;;;;;;;2.70;1.35;;;2.20;99.90;;;;;;5089229;28;20021;-90
2024/03/01 10:17:11;;;;;;;3.05;0.95;;;2.10;99.90;;;;;;5090572;28;20016;-89
2024/03/01 10:19:46;;;;;;;0.43;0.43;;;2.20;99.90;;;;;;5091435;28;20028;-89
2024/03/01 10:22:31;;;;;;;0.52;0.40;;;2.20;99.90;;;;;;5095648;28;20530;-89
2024/03/01 10:25:15;;;;;;;0.73;0.52;;;2.20;99.90;;;;;;5093397;28;20024;-90
2024/03/01 10:27:48;;;;;;;1.45;0.50;;;2.20;99.90;;;;;;5094117;28;20473;-90
2024/03/01 10:30:20;;;;;;;1.75;0.82;;;2.20;99.90;;;;;;5094249;28;20062;-90
2024/03/01 10:33:31;;;;;;;1.58;0.60;;;2.20;99.90;;;;;;5094674;28;20107;-92
2024/03/01 10:36:26;;;;;;;1.23;0.50;;;2.20;99.90;;;;;;5095665;28;20047;-90
2024/03/01 10:39:00;;;;;;;1.55;0.60;;;2.20;99.90;;;;;;5104053;28;20047;-90
2024/03/01 10:41:53;;;;;;;1.23;0.68;;;2.30;99.90;;;;;;5096262;28;20020;-89
2024/03/01 10:44:37;;;;;;;0.82;0.60;;;2.40;99.90;;;;;;5096875;28;20126;-89
2024/03/01 10:47:16;;;;;;;0.63;0.52;;;2.40;99.90;;;;;;5103544;28;20032;-89
2024/03/01 10:50:07;;;;;;;2.53;0.80;;;2.40;99.90;;;;;;5100879;28;20028;-91
2024/03/01 10:52:42;;;;;;;1.80;0.40;;;2.50;99.90;;;;;;5100316;28;20025;-90
2024/03/01 10:55:39;;;;;;;1.27;0.63;;;2.50;99.90;;;;;;5100913;28;20405;-90
2024/03/01 10:58:20;;;;;;;1.80;0.75;;;2.60;99.90;;;;;;5093401;28;20415;-89
2024/03/01 11:00:50;;;;;;;;;;;2.60;99.90;;;;;;5096546;28;20027;-91
2024/03/01 11:03:24;;;;;;;1.98;0.63;;;2.60;99.90;;;;;;5094341;28;19904;-90
2024/03/01 11:06:27;;;;;;;1.05;0.63;;;2.70;99.90;;;;;;5094372;28;20020;-89
2024/03/01 11:09:06;;;;;;;0.77;0.55;;;2.70;99.90;;;;;;5097884;28;20031;-88
2024/03/01 11:12:01;;;;;;;3.92;0.60;;;2.70;99.90;;;;;;5132014;27;20020;-91
2024/03/01 11:14:31;;;;;;;4.60;0.90;;;2.80;99.90;;;;;;5116595;28;20031;-89
2024/03/01 11:17:00;;;;;;;2.83;1.30;;;2.80;99.90;;;;;;5132696;27;20101;-89
2024/03/01 11:19:29;;;;;;;4.32;1.17;;;2.80;99.90;;;;;;5120415;27;20457;-89
2024/03/01 11:22:24;;;;;;;1.20;1.10;;;2.80;99.90;;;;;;5083087;28;20052;-89
2024/03/01 11:25:12;;;;;;;4.18;1.15;;;2.90;99.90;;;;;;5078902;28;20032;-90
2024/03/01 11:27:48;;;;;;;2.92;1.08;;;2.90;99.90;;;;;;5078303;28;20024;-89
2024/03/01 11:30:21;;;;;;;2.55;1.25;;;2.90;99.90;;;;;;5097842;28;20024;-89
2024/03/01 11:32:51;;;;;;;4.60;1.50;;;2.90;99.90;;;;;;5094363;28;20027;-90
2024/03/01 11:35:29;;;;;;;4.72;1.30;;;3.00;99.90;;;;;;5093982;28;20028;-89
2024/03/01 11:37:57;;;;;;;1.50;1.05;;;3.00;99.90;;;;;;5097864;28;20131;-90
2024/03/01 11:40:54;;;;;;;2.15;1.25;;;3.00;99.90;;;;;;5099716;28;20440;-90
2024/03/01 11:43:32;;;;;;;3.75;1.20;;;3.00;99.90;;;;;;5100794;28;20046;-89
2024/03/01 11:46:13;;;;;;;2.42;1.05;;;3.00;99.90;;;;;;5073837;28;20051;-88
2024/03/01 11:48:48;;;;;;;;;;;3.10;99.90;;;;;;5089161;28;20062;-88
2024/03/01 11:51:17;;;;;;;1.65;1.02;;;3.10;99.90;;;;;;5074203;28;19958;-89
2024/03/01 11:54:21;;;;;;;2.78;1.35;;;3.10;99.90;;;;;;5090945;28;20039;-88
2024/03/01 11:57:14;;;;;;;2.63;1.40;;;3.10;99.90;;;;;;5065090;28;20064;-88
2024/03/01 11:59:51;;;;;;;2.65;1.52;;;3.10;99.90;;;;;;5095304;28;20169;-90
2024/03/01 12:02:29;;;;;;;3.25;1.50;;;3.10;99.90;;;;;;5097119;28;20020;-89
2024/03/01 12:05:16;;;;;;;2.47;1.50;;;3.10;99.90;;;;;;5096106;28;20032;-89
2024/03/01 12:08:17;;;;;;;1.58;1.40;;;3.10;99.90;;;;;;5096005;28;20028;-89
2024/03/01 12:10:53;;;;;;;2.97;1.70;;;3.10;99.90;;;;;;5075460;28;20029;-88
2024/03/01 12:13:19;;;;;;;1.92;1.30;;;3.20;99.90;;;;;;5070046;28;20161;-88
2024/03/01 12:16:08;;;;;;;1.60;1.50;;;3.20;99.90;;;;;;5052819;28;20094;-88
2024/03/01 12:18:50;;;;;;;1.90;1.80;;;3.20;99.90;;;;;;5072209;28;20051;-89
2024/03/01 12:21:19;;;;;;;3.25;1.75;;;3.20;99.90;;;;;;5055410;28;20025;-89
2024/03/01 12:24:09;;;;;;;1.98;1.70;;;3.30;99.90;;;;;;5071959;28;20045;-89
2024/03/01 12:27:04;;;;;;;2.63;1.83;;;3.40;99.90;;;;;;5071893;28;20024;-89
2024/03/01 12:29:43;;;;;;;1.83;1.70;;;3.40;99.90;;;;;;5054850;28;20035;-89
2024/03/01 12:32:29;;;;;;;2.03;1.63;;;3.50;99.90;;;;;;5071810;28;20474;-89
2024/03/01 12:35:13;;;;;;;2.17;1.98;;;3.60;99.90;;;;;;5055108;28;20128;-88
2024/03/01 12:37:46;;;;;;;2.33;1.63;;;3.80;99.90;;;;;;5051571;28;20055;-88
2024/03/01 12:40:18;;;;;;;2.17;1.80;;;4.00;99.90;;;;;;5051295;28;20032;-88
2024/03/01 12:43:16;;;;;;;2.17;1.67;;;4.20;99.90;;;;;;5050626;28;20029;-88
2024/03/01 12:46:23;;;;;;;3.15;2.45;;;4.30;99.90;;;;;;5070233;28;20032;-88
2024/03/01 12:49:20;;;;;;;1.98;1.50;;;4.50;99.90;;;;;;5084224;28;20498;-88
2024/03/01 12:52:01;;;;;;;4.63;3.60;;;4.70;99.90;;;;;;5090680;28;20614;-87
2024/03/01 12:55:05;;;;;;;2.67;2.13;;;4.80;99.90;;;;;;5089293;28;20178;-88
2024/03/01 12:57:53;;;;;;;3.53;2.08;;;4.80;99.90;;;;;;5071140;28;20056;-88
2024/03/01 13:00:26;;;;;;;3.17;2.28;;;4.80;99.90;;;;;;5090845;28;20474;-88
2024/03/01 13:03:28;;;;;;;2.20;1.88;;;4.80;99.90;;;;;;5095150;28;20029;-85
2024/03/01 13:05:54;;;;;;;3.22;2.15;;;4.80;99.90;;;;;;5089689;28;20040;-86
2024/03/01 13:08:26;;;;;;;2.75;2.30;;;4.80;99.90;;;;;;5089854;28;20055;-89
2024/03/01 13:10:57;;;;;;;5.05;2.30;;;4.90;99.90;;;;;;5099011;28;20020;-87
2024/03/01 13:13:25;;;;;;;2.90;2.60;;;5.00;99.90;;;;;;5089710;28;20016;-89